Alsey, IL

6:51 PM CDT on March 28, 2015 (GMT -0500)
Weather Station 62694 | | Change Station
CLOSE
Current Station
Personal Weather Station
Location: Winchester, IL
Elevation: 548 ft
Nearby Weather Stations

Elev 548 ft 39.63 °N, 90.45 °W | Updated 1 minute ago

Clear
Clear
41.0 °F
Feels Like 37 °F
N
5.4
Wind Variable Wind from SE
Gusts 7.6 mph

Today
High -- | Low -- °F
--% Chance of Precip.
Yesterday
High -- | Low -- °F
Precip. -- in
6:52 AM 7:21 PM
Waxing Gibbous, 66% visible
Pressure 30.26 in
Visibility 10.0 miles
Clouds Clear
Windchill 37 °F
Dew Point 23 °F
Humidity 49%
Rainfall 0.00 in
Snow Depth Not available.
UV 0 out of 12
Pollen 5.90 out of 12
Air Quality Not available.
Flu Activity Not available.
METAR KIJX 282335Z AUTO 12006KT 10SM CLR 05/M06 A3026 RMK AO2 T00531062

More Conditions Fewer Conditions

Pressure 30.26 in
Visibility 10.0 miles
Clouds Clear
Windchill 37 °F
Dew Point 23 °F
Humidity 49%
Rainfall 0.00 in
Snow Depth Not available.
UV 0 out of 12
Pollen 5.90 out of 12
Air Quality Not available.
Flu Activity Not available.
METAR KIJX 282335Z AUTO 12006KT 10SM CLR 05/M06 A3026 RMK AO2 T00531062

More Conditions Fewer Conditions

10-Day Weather Forecast

Almanac

Astronomy

Mar. 28, 2015 Rise Set
Actual Time
Civil Twilight
Nautical Twilight
Astronomical Twilight
Moon
Length of Visible Light
Length of Day
Tomorrow will be .
, % of the Moon is Illuminated

Today's Extremes

State Highs State Lows

Community

WunderPhotos

Upload Photos

1,809,128 photos uploaded!

WunderBlogs® & News

Nearby

Air Quality

  Air Quality AQ Index Pollutant
Not available.

Snow Depth

Station Depth Elevation

Earthquake Activity

City Distance Mag. Time & Date
Minimum magnitude displayed is 2.5.

Coastal Water Temperatures

Place Temperature

Stations

Nearby Weather Stations

Station Location Temp. Windchill Dew Point Humidity Wind Precip. Elev Updated Type